www.cux-wetter.de
Wetterdaten: Sonntag, 16.09.2007
Datum Zeit Temp. A. Feuchte A. Luftdruck Regen Wind Richtung Richtung Sonnenschein Solar Taupunkt Windchill Windben
16.09.2007 00:00 11,9 C 82 % 1018,5 hPa 0,0 l/m 13,5 km/h (3 Bft) W-SW 255 0 min 0 W/m 8,9 C 8,0 C 13,5 km/h (3 Bft)
16.09.2007 00:05 11,8 C 83 % 1018,5 hPa 0,0 l/m 13,2 km/h (3 Bft) W 260 0 min 0 W/m 9,0 C 8,1 C 13,2 km/h (3 Bft)
16.09.2007 00:10 11,8 C 83 % 1018,5 hPa 0,0 l/m 13,2 km/h (3 Bft) W 260 0 min 0 W/m 9,0 C 8,1 C 13,2 km/h (3 Bft)
16.09.2007 00:15 11,8 C 84 % 1018,5 hPa 0,0 l/m 16,9 km/h (3 Bft) W-SW 255 0 min 0 W/m 9,2 C 6,6 C 16,9 km/h (3 Bft)
16.09.2007 00:20 11,7 C 84 % 1018,5 hPa 0,0 l/m 14,9 km/h (3 Bft) W 260 0 min 0 W/m 9,1 C 7,2 C 14,9 km/h (3 Bft)
16.09.2007 00:25 11,7 C 84 % 1018,5 hPa 0,0 l/m 13,5 km/h (3 Bft) W-SW 250 0 min 0 W/m 9,1 C 7,8 C 13,5 km/h (3 Bft)
16.09.2007 00:30 11,7 C 84 % 1018,5 hPa 0,0 l/m 13,1 km/h (3 Bft) W-SW 250 0 min 0 W/m 9,1 C 8,0 C 13,1 km/h (3 Bft)
16.09.2007 00:35 11,7 C 84 % 1018,5 hPa 0,0 l/m 11,2 km/h (2 Bft) W-SW 250 0 min 0 W/m 9,1 C 8,9 C 11,2 km/h (2 Bft)
16.09.2007 00:40 11,7 C 85 % 1018,5 hPa 0,0 l/m 13,1 km/h (3 Bft) W-SW 255 0 min 0 W/m 9,3 C 8,0 C 13,1 km/h (3 Bft)
16.09.2007 00:46 11,8 C 85 % 1018,5 hPa 0,0 l/m 14,1 km/h (3 Bft) W 260 0 min 0 W/m 9,4 C 7,7 C 14,1 km/h (3 Bft)
16.09.2007 00:50 11,8 C 86 % 1018,5 hPa 0,0 l/m 13,5 km/h (3 Bft) W-SW 255 0 min 0 W/m 9,5 C 7,9 C 13,5 km/h (3 Bft)
16.09.2007 00:55 11,7 C 85 % 1018,5 hPa 0,0 l/m 13,4 km/h (3 Bft) W-SW 250 0 min 0 W/m 9,3 C 7,8 C 13,4 km/h (3 Bft)
16.09.2007 01:00 11,6 C 85 % 1018,5 hPa 0,0 l/m 11,7 km/h (2 Bft) W-SW 250 0 min 0 W/m 9,2 C 8,5 C 11,7 km/h (2 Bft)
16.09.2007 01:05 11,5 C 85 % 1018,5 hPa 0,0 l/m 13,6 km/h (3 Bft) W-SW 250 0 min 0 W/m 9,1 C 7,5 C 13,6 km/h (3 Bft)
16.09.2007 01:10 11,4 C 85 % 1018,5 hPa 0,0 l/m 9,6 km/h (2 Bft) W-SW 240 0 min 0 W/m 9,0 C 9,4 C 9,6 km/h (2 Bft)
16.09.2007 01:15 11,3 C 86 % 1018,5 hPa 0,0 l/m 9,6 km/h (2 Bft) W-SW 245 0 min 0 W/m 9,0 C 9,3 C 9,6 km/h (2 Bft)
16.09.2007 01:20 11,2 C 86 % 1018,5 hPa 0,0 l/m 11,5 km/h (2 Bft) W-SW 250 0 min 0 W/m 8,9 C 8,1 C 11,5 km/h (2 Bft)
16.09.2007 01:25 11,2 C 86 % 1018,5 hPa 0,0 l/m 9,4 km/h (2 Bft) W-SW 240 0 min 0 W/m 8,9 C 9,3 C 9,4 km/h (2 Bft)
16.09.2007 01:30 11,0 C 87 % 1017,5 hPa 0,0 l/m 12,2 km/h (2 Bft) W-SW 240 0 min 0 W/m 8,9 C 7,6 C 12,2 km/h (2 Bft)
16.09.2007 01:35 11,0 C 87 % 1017,5 hPa 0,0 l/m 12,2 km/h (2 Bft) W-SW 245 0 min 0 W/m 8,9 C 7,6 C 12,2 km/h (2 Bft)
16.09.2007 01:40 11,0 C 88 % 1017,5 hPa 0,0 l/m 12,6 km/h (3 Bft) W-SW 255 0 min 0 W/m 9,1 C 7,4 C 12,6 km/h (3 Bft)
16.09.2007 01:45 11,0 C 88 % 1017,5 hPa 0,0 l/m 11,3 km/h (2 Bft) W-SW 250 0 min 0 W/m 9,1 C 8,0 C 11,3 km/h (2 Bft)
16.09.2007 01:50 11,0 C 88 % 1017,5 hPa 0,0 l/m 12,0 km/h (2 Bft) W-SW 250 0 min 0 W/m 9,1 C 7,7 C 12,0 km/h (2 Bft)
16.09.2007 01:55 11,0 C 88 % 1017,5 hPa 0,0 l/m 11,8 km/h (2 Bft) W-SW 250 0 min 0 W/m 9,1 C 7,8 C 11,8 km/h (2 Bft)
16.09.2007 02:00 11,0 C 87 % 1017,5 hPa 0,0 l/m 10,3 km/h (2 Bft) W-SW 245 0 min 0 W/m 8,9 C 8,5 C 10,3 km/h (2 Bft)
16.09.2007 02:05 11,0 C 87 % 1017,5 hPa 0,0 l/m 9,8 km/h (2 Bft) W-SW 245 0 min 0 W/m 8,9 C 8,8 C 9,8 km/h (2 Bft)
16.09.2007 02:10 11,0 C 87 % 1017,5 hPa 0,0 l/m 12,5 km/h (2 Bft) W-SW 245 0 min 0 W/m 8,9 C 7,4 C 12,5 km/h (2 Bft)
16.09.2007 02:15 11,0 C 87 % 1017,5 hPa 0,0 l/m 11,8 km/h (2 Bft) W-SW 245 0 min 0 W/m 8,9 C 7,8 C 11,8 km/h (2 Bft)
16.09.2007 02:20 10,9 C 87 % 1017,5 hPa 0,0 l/m 12,7 km/h (3 Bft) W-SW 245 0 min 0 W/m 8,8 C 7,2 C 12,7 km/h (3 Bft)
16.09.2007 02:25 10,8 C 87 % 1017,5 hPa 0,0 l/m 13,0 km/h (3 Bft) W-SW 250 0 min 0 W/m 8,7 C 7,0 C 13,0 km/h (3 Bft)
16.09.2007 02:30 10,8 C 88 % 1017,5 hPa 0,0 l/m 13,0 km/h (3 Bft) W-SW 255 0 min 0 W/m 8,9 C 7,0 C 13,0 km/h (3 Bft)
16.09.2007 02:35 10,8 C 88 % 1017,5 hPa 0,0 l/m 13,8 km/h (3 Bft) W-SW 255 0 min 0 W/m 8,9 C 6,6 C 13,8 km/h (3 Bft)
16.09.2007 02:40 10,8 C 88 % 1017,5 hPa 0,0 l/m 14,5 km/h (3 Bft) W-SW 255 0 min 0 W/m 8,9 C 6,3 C 14,5 km/h (3 Bft)
16.09.2007 02:45 10,8 C 88 % 1016,5 hPa 0,0 l/m 14,8 km/h (3 Bft) W-SW 250 0 min 0 W/m 8,9 C 6,2 C 14,8 km/h (3 Bft)
16.09.2007 02:50 10,8 C 88 % 1016,5 hPa 0,0 l/m 10,4 km/h (2 Bft) W-SW 250 0 min 0 W/m 8,9 C 8,3 C 10,4 km/h (2 Bft)
16.09.2007 02:55 10,7 C 88 % 1016,5 hPa 0,0 l/m 14,0 km/h (3 Bft) W-SW 250 0 min 0 W/m 8,8 C 6,4 C 14,0 km/h (3 Bft)
16.09.2007 03:00 10,7 C 88 % 1016,5 hPa 0,0 l/m 12,8 km/h (3 Bft) W-SW 255 0 min 0 W/m 8,8 C 6,9 C 12,8 km/h (3 Bft)
16.09.2007 03:05 10,7 C 88 % 1016,5 hPa 0,0 l/m 10,3 km/h (2 Bft) W-SW 250 0 min 0 W/m 8,8 C 8,2 C 10,3 km/h (2 Bft)
16.09.2007 03:10 10,8 C 88 % 1016,5 hPa 0,0 l/m 14,3 km/h (3 Bft) W-SW 250 0 min 0 W/m 8,9 C 6,4 C 14,3 km/h (3 Bft)
16.09.2007 03:15 10,8 C 88 % 1016,5 hPa 0,0 l/m 10,8 km/h (2 Bft) W-SW 245 0 min 0 W/m 8,9 C 8,0 C 10,8 km/h (2 Bft)
16.09.2007 03:20 10,8 C 88 % 1016,5 hPa 0,0 l/m 16,2 km/h (3 Bft) W-SW 250 0 min 0 W/m 8,9 C 5,6 C 16,2 km/h (3 Bft)
16.09.2007 03:25 10,8 C 88 % 1016,5 hPa 0,0 l/m 18,1 km/h (3 Bft) W-SW 250 0 min 0 W/m 8,9 C 4,9 C 18,1 km/h (3 Bft)
16.09.2007 03:30 11,0 C 88 % 1016,5 hPa 0,0 l/m 15,7 km/h (3 Bft) W-SW 250 0 min 0 W/m 9,1 C 6,1 C 15,7 km/h (3 Bft)
16.09.2007 03:35 11,0 C 88 % 1016,5 hPa 0,0 l/m 15,8 km/h (3 Bft) W-SW 245 0 min 0 W/m 9,1 C 6,0 C 15,8 km/h (3 Bft)
16.09.2007 03:40 11,0 C 88 % 1016,5 hPa 0,0 l/m 12,5 km/h (2 Bft) W-SW 250 0 min 0 W/m 9,1 C 7,4 C 12,5 km/h (2 Bft)
16.09.2007 03:45 11,0 C 87 % 1016,5 hPa 0,0 l/m 16,3 km/h (3 Bft) W-SW 245 0 min 0 W/m 8,9 C 5,8 C 16,3 km/h (3 Bft)
16.09.2007 03:50 10,9 C 87 % 1016,5 hPa 0,0 l/m 11,2 km/h (2 Bft) SW 235 0 min 0 W/m 8,8 C 7,9 C 11,2 km/h (2 Bft)
16.09.2007 03:55 10,9 C 87 % 1016,5 hPa 0,0 l/m 10,0 km/h (2 Bft) W-SW 240 0 min 0 W/m 8,8 C 8,6 C 10,0 km/h (2 Bft)
16.09.2007 04:00 10,8 C 88 % 1016,5 hPa 0,0 l/m 8,2 km/h (2 Bft) W-SW 240 0 min 0 W/m 8,9 C 9,6 C 8,2 km/h (2 Bft)
16.09.2007 04:05 10,7 C 88 % 1016,5 hPa 0,0 l/m 8,8 km/h (2 Bft) W-SW 250 0 min 0 W/m 8,8 C 9,1 C 8,8 km/h (2 Bft)
16.09.2007 04:10 10,7 C 88 % 1016,5 hPa 0,0 l/m 5,2 km/h (1 Bft) W-SW 240 0 min 0 W/m 8,8 C 10,7 C 5,2 km/h (1 Bft)
16.09.2007 04:15 10,6 C 88 % 1016,5 hPa 0,0 l/m 8,6 km/h (2 Bft) SW 225 0 min 0 W/m 8,7 C 9,1 C 8,6 km/h (2 Bft)
16.09.2007 04:20 10,6 C 88 % 1016,5 hPa 0,0 l/m 8,6 km/h (2 Bft) SW 225 0 min 0 W/m 8,7 C 9,1 C 8,6 km/h (2 Bft)
16.09.2007 04:25 10,6 C 88 % 1016,5 hPa 0,0 l/m 9,6 km/h (2 Bft) W-SW 240 0 min 0 W/m 8,7 C 8,5 C 9,6 km/h (2 Bft)
16.09.2007 04:30 10,6 C 88 % 1015,5 hPa 0,0 l/m 10,5 km/h (2 Bft) SW 235 0 min 0 W/m 8,7 C 8,0 C 10,5 km/h (2 Bft)
16.09.2007 04:35 10,6 C 88 % 1015,5 hPa 0,0 l/m 9,8 km/h (2 Bft) W-SW 240 0 min 0 W/m 8,7 C 8,4 C 9,8 km/h (2 Bft)
16.09.2007 04:40 10,7 C 88 % 1015,5 hPa 0,0 l/m 11,2 km/h (2 Bft) W-SW 240 0 min 0 W/m 8,8 C 7,7 C 11,2 km/h (2 Bft)
16.09.2007 04:45 10,7 C 88 % 1015,5 hPa 0,0 l/m 10,5 km/h (2 Bft) W-SW 240 0 min 0 W/m 8,8 C 8,1 C 10,5 km/h (2 Bft)
16.09.2007 04:50 10,8 C 88 % 1015,5 hPa 0,0 l/m 13,6 km/h (3 Bft) W-SW 245 0 min 0 W/m 8,9 C 6,7 C 13,6 km/h (3 Bft)
16.09.2007 04:55 10,8 C 88 % 1015,5 hPa 0,0 l/m 12,8 km/h (3 Bft) SW 235 0 min 0 W/m 8,9 C 7,1 C 12,8 km/h (3 Bft)
16.09.2007 05:00 10,8 C 88 % 1015,5 hPa 0,0 l/m 13,5 km/h (3 Bft) W-SW 245 0 min 0 W/m 8,9 C 6,7 C 13,5 km/h (3 Bft)
16.09.2007 05:05 10,8 C 88 % 1015,5 hPa 0,0 l/m 12,9 km/h (3 Bft) SW 235 0 min 0 W/m 8,9 C 7,0 C 12,9 km/h (3 Bft)
16.09.2007 05:10 10,8 C 88 % 1015,5 hPa 0,0 l/m 12,3 km/h (2 Bft) W-SW 245 0 min 0 W/m 8,9 C 7,3 C 12,3 km/h (2 Bft)
16.09.2007 05:15 10,8 C 88 % 1015,5 hPa 0,0 l/m 11,0 km/h (2 Bft) W-SW 250 0 min 0 W/m 8,9 C 7,9 C 11,0 km/h (2 Bft)
16.09.2007 05:20 10,8 C 88 % 1015,5 hPa 0,0 l/m 13,6 km/h (3 Bft) SW 235 0 min 0 W/m 8,9 C 6,7 C 13,6 km/h (3 Bft)
16.09.2007 05:25 10,8 C 87 % 1015,5 hPa 0,0 l/m 14,7 km/h (3 Bft) W-SW 240 0 min 0 W/m 8,7 C 6,2 C 14,7 km/h (3 Bft)
16.09.2007 05:30 10,8 C 88 % 1015,5 hPa 0,0 l/m 14,3 km/h (3 Bft) W-SW 240 0 min 0 W/m 8,9 C 6,4 C 14,3 km/h (3 Bft)
16.09.2007 05:35 10,8 C 88 % 1015,5 hPa 0,0 l/m 11,4 km/h (2 Bft) W-SW 245 0 min 0 W/m 8,9 C 7,7 C 11,4 km/h (2 Bft)
16.09.2007 05:40 10,8 C 88 % 1015,5 hPa 0,0 l/m 13,0 km/h (3 Bft) SW 235 0 min 0 W/m 8,9 C 7,0 C 13,0 km/h (3 Bft)
16.09.2007 05:45 10,8 C 88 % 1015,5 hPa 0,0 l/m 16,1 km/h (3 Bft) W-SW 245 0 min 0 W/m 8,9 C 5,7 C 16,1 km/h (3 Bft)
16.09.2007 05:50 10,8 C 88 % 1014,5 hPa 0,0 l/m 13,0 km/h (3 Bft) SW 230 0 min 0 W/m 8,9 C 7,0 C 13,0 km/h (3 Bft)
16.09.2007 05:55 10,8 C 88 % 1014,5 hPa 0,0 l/m 14,2 km/h (3 Bft) W-SW 245 0 min 0 W/m 8,9 C 6,4 C 14,2 km/h (3 Bft)
16.09.2007 06:00 10,8 C 88 % 1015,5 hPa 0,0 l/m 11,9 km/h (2 Bft) W-SW 250 0 min 0 W/m 8,9 C 7,5 C 11,9 km/h (2 Bft)
16.09.2007 06:05 10,8 C 88 % 1015,5 hPa 0,0 l/m 16,5 km/h (3 Bft) W-SW 245 0 min 0 W/m 8,9 C 5,5 C 16,5 km/h (3 Bft)
16.09.2007 06:10 10,8 C 88 % 1014,5 hPa 0,0 l/m 12,3 km/h (2 Bft) W-SW 245 0 min 0 W/m 8,9 C 7,3 C 12,3 km/h (2 Bft)
16.09.2007 06:15 10,8 C 88 % 1014,5 hPa 0,0 l/m 13,9 km/h (3 Bft) W-SW 255 0 min 0 W/m 8,9 C 6,6 C 13,9 km/h (3 Bft)
16.09.2007 06:20 10,9 C 88 % 1014,5 hPa 0,0 l/m 11,8 km/h (2 Bft) SW 235 0 min 0 W/m 9,0 C 7,6 C 11,8 km/h (2 Bft)
16.09.2007 06:25 10,9 C 88 % 1014,5 hPa 0,0 l/m 10,6 km/h (2 Bft) W-SW 250 0 min 0 W/m 9,0 C 8,3 C 10,6 km/h (2 Bft)
16.09.2007 06:30 10,8 C 88 % 1014,5 hPa 0,0 l/m 14,5 km/h (3 Bft) W-SW 245 0 min 0 W/m 8,9 C 6,3 C 14,5 km/h (3 Bft)
16.09.2007 06:35 10,8 C 88 % 1014,5 hPa 0,0 l/m 14,2 km/h (3 Bft) SW 235 0 min 0 W/m 8,9 C 6,4 C 14,2 km/h (3 Bft)
16.09.2007 06:40 10,8 C 88 % 1014,5 hPa 0,0 l/m 14,6 km/h (3 Bft) W-SW 255 0 min 0 W/m 8,9 C 6,3 C 14,6 km/h (3 Bft)
16.09.2007 06:45 10,8 C 88 % 1014,5 hPa 0,0 l/m 15,5 km/h (3 Bft) W-SW 240 0 min 0 W/m 8,9 C 5,9 C 15,5 km/h (3 Bft)
16.09.2007 06:50 10,9 C 88 % 1014,5 hPa 0,0 l/m 14,3 km/h (3 Bft) W-SW 250 0 min 0 W/m 9,0 C 6,5 C 14,3 km/h (3 Bft)
16.09.2007 06:55 10,9 C 87 % 1014,5 hPa 0,0 l/m 16,3 km/h (3 Bft) W-SW 240 0 min 0 W/m 8,8 C 5,7 C 16,3 km/h (3 Bft)
16.09.2007 07:00 11,0 C 87 % 1014,5 hPa 0,0 l/m 17,2 km/h (3 Bft) W-SW 255 0 min 0 W/m 8,9 C 5,5 C 17,2 km/h (3 Bft)
16.09.2007 07:05 11,1 C 87 % 1014,5 hPa 0,0 l/m 16,2 km/h (3 Bft) W-SW 255 0 min 0 W/m 9,0 C 6,0 C 16,2 km/h (3 Bft)
16.09.2007 07:10 11,0 C 87 % 1014,5 hPa 0,0 l/m 16,0 km/h (3 Bft) W-SW 250 0 min 0 W/m 8,9 C 6,0 C 16,0 km/h (3 Bft)
16.09.2007 07:15 11,1 C 86 % 1014,5 hPa 0,0 l/m 19,0 km/h (3 Bft) SW 235 0 min 0 W/m 8,8 C 5,0 C 19,0 km/h (3 Bft)
16.09.2007 07:20 11,2 C 86 % 1014,5 hPa 0,0 l/m 17,9 km/h (3 Bft) W-SW 245 0 min 0 W/m 8,9 C 5,5 C 17,9 km/h (3 Bft)
16.09.2007 07:25 11,2 C 86 % 1014,5 hPa 0,0 l/m 19,0 km/h (3 Bft) W-SW 255 0 min 0 W/m 8,9 C 5,2 C 19,0 km/h (3 Bft)
16.09.2007 07:30 11,3 C 85 % 1014,5 hPa 0,0 l/m 23,4 km/h (4 Bft) W-SW 255 0 min 0 W/m 8,9 C 4,0 C 23,4 km/h (4 Bft)
16.09.2007 07:35 11,4 C 85 % 1014,5 hPa 0,0 l/m 23,4 km/h (4 Bft) W-SW 250 0 min 0 W/m 9,0 C 4,1 C 23,4 km/h (4 Bft)
16.09.2007 07:40 11,6 C 84 % 1014,5 hPa 0,0 l/m 24,5 km/h (4 Bft) W 260 0 min 0 W/m 9,0 C 4,1 C 24,5 km/h (4 Bft)
16.09.2007 07:45 11,7 C 84 % 1014,5 hPa 0,0 l/m 20,6 km/h (4 Bft) W-SW 250 0 min 0 W/m 9,1 C 5,3 C 20,6 km/h (4 Bft)
16.09.2007 07:50 11,8 C 84 % 1013,5 hPa 0,0 l/m 26,5 km/h (4 Bft) W-SW 255 0 min 0 W/m 9,2 C 3,9 C 26,5 km/h (4 Bft)
16.09.2007 07:55 11,9 C 83 % 1013,5 hPa 0,0 l/m 21,5 km/h (4 Bft) W-SW 255 0 min 0 W/m 9,1 C 5,3 C 21,5 km/h (4 Bft)
16.09.2007 08:00 11,9 C 83 % 1013,5 hPa 0,0 l/m 23,0 km/h (4 Bft) W-SW 245 0 min 0 W/m 9,1 C 4,9 C 23,0 km/h (4 Bft)
16.09.2007 08:05 11,9 C 82 % 1013,5 hPa 0,0 l/m 23,7 km/h (4 Bft) W-SW 245 0 min 0 W/m 8,9 C 4,7 C 23,7 km/h (4 Bft)
16.09.2007 08:10 11,8 C 82 % 1013,5 hPa 0,0 l/m 18,4 km/h (3 Bft) W 260 0 min 0 W/m 8,8 C 6,1 C 18,4 km/h (3 Bft)
16.09.2007 08:15 11,8 C 82 % 1013,5 hPa 0,0 l/m 23,0 km/h (4 Bft) W-SW 250 0 min 0 W/m 8,8 C 4,8 C 23,0 km/h (4 Bft)
16.09.2007 08:20 11,8 C 82 % 1013,5 hPa 0,0 l/m 20,2 km/h (4 Bft) W-SW 250 0 min 0 W/m 8,8 C 5,6 C 20,2 km/h (4 Bft)
16.09.2007 08:25 11,8 C 83 % 1013,5 hPa 0,0 l/m 20,0 km/h (4 Bft) W-SW 250 0 min 0 W/m 9,0 C 5,6 C 20,0 km/h (4 Bft)
16.09.2007 08:30 11,8 C 83 % 1013,5 hPa 0,0 l/m 23,0 km/h (4 Bft) W-SW 250 0 min 0 W/m 9,0 C 4,8 C 23,0 km/h (4 Bft)
16.09.2007 08:35 12,0 C 83 % 1013,5 hPa 0,0 l/m 28,3 km/h (5 Bft) W-SW 255 0 min 0 W/m 9,2 C 3,8 C 28,3 km/h (5 Bft)
16.09.2007 08:41 12,2 C 82 % 1013,5 hPa 0,0 l/m 26,9 km/h (4 Bft) W 265 0 min 0 W/m 9,2 C 4,4 C 26,9 km/h (4 Bft)
16.09.2007 08:45 12,3 C 82 % 1013,5 hPa 0,0 l/m 29,0 km/h (5 Bft) W-SW 255 0 min 0 W/m 9,3 C 4,1 C 29,0 km/h (5 Bft)
16.09.2007 08:50 12,4 C 81 % 1013,5 hPa 0,0 l/m 20,5 km/h (4 Bft) W-SW 250 0 min 0 W/m 9,2 C 6,2 C 20,5 km/h (4 Bft)
16.09.2007 08:55 12,4 C 81 % 1013,5 hPa 0,0 l/m 23,0 km/h (4 Bft) W-SW 255 0 min 0 W/m 9,2 C 5,6 C 23,0 km/h (4 Bft)
16.09.2007 09:00 12,5 C 81 % 1013,5 hPa 0,0 l/m 23,7 km/h (4 Bft) W-SW 250 0 min 0 W/m 9,3 C 5,5 C 23,7 km/h (4 Bft)
16.09.2007 09:05 12,6 C 81 % 1013,5 hPa 0,0 l/m 23,7 km/h (4 Bft) W-SW 250 0 min 0 W/m 9,4 C 5,7 C 23,7 km/h (4 Bft)
16.09.2007 09:10 12,7 C 80 % 1013,5 hPa 0,0 l/m 25,2 km/h (4 Bft) W-SW 250 0 min 0 W/m 9,3 C 5,4 C 25,2 km/h (4 Bft)
16.09.2007 09:15 12,8 C 80 % 1013,5 hPa 0,0 l/m 26,6 km/h (4 Bft) W 260 0 min 0 W/m 9,4 C 5,3 C 26,6 km/h (4 Bft)
16.09.2007 09:20 12,8 C 80 % 1013,5 hPa 0,0 l/m 27,8 km/h (5 Bft) W-SW 255 0 min 0 W/m 9,4 C 5,0 C 27,8 km/h (5 Bft)
16.09.2007 09:25 13,0 C 79 % 1013,5 hPa 0,0 l/m 26,3 km/h (4 Bft) W 260 0 min 0 W/m 9,4 C 5,6 C 26,3 km/h (4 Bft)
16.09.2007 09:30 13,2 C 79 % 1013,5 hPa 0,0 l/m 29,6 km/h (5 Bft) W-SW 255 0 min 0 W/m 9,6 C 5,2 C 29,6 km/h (5 Bft)
16.09.2007 09:35 13,3 C 78 % 1013,5 hPa 0,0 l/m 28,2 km/h (5 Bft) W-SW 255 0 min 0 W/m 9,5 C 5,6 C 28,2 km/h (5 Bft)
16.09.2007 09:40 13,4 C 77 % 1013,5 hPa 0,0 l/m 30,7 km/h (5 Bft) W-SW 255 0 min 0 W/m 9,5 C 5,3 C 30,7 km/h (5 Bft)
16.09.2007 09:45 13,5 C 76 % 1013,5 hPa 0,0 l/m 30,6 km/h (5 Bft) W-SW 250 0 min 0 W/m 9,4 C 5,5 C 30,6 km/h (5 Bft)
16.09.2007 09:50 13,7 C 76 % 1013,5 hPa 0,0 l/m 27,3 km/h (5 Bft) W 260 0 min 0 W/m 9,5 C 6,4 C 27,3 km/h (5 Bft)
16.09.2007 09:55 13,7 C 76 % 1013,5 hPa 0,0 l/m 27,5 km/h (5 Bft) W 260 0 min 0 W/m 9,5 C 6,3 C 27,5 km/h (5 Bft)
16.09.2007 10:00 14,0 C 75 % 1013,5 hPa 0,0 l/m 30,3 km/h (5 Bft) W-SW 255 0 min 0 W/m 9,6 C 6,2 C 30,3 km/h (5 Bft)
16.09.2007 10:05 14,3 C 75 % 1013,5 hPa 0,0 l/m 33,0 km/h (5 Bft) W 260 0 min 0 W/m 9,9 C 6,2 C 33,0 km/h (5 Bft)
16.09.2007 10:10 14,4 C 75 % 1013,5 hPa 0,0 l/m 23,5 km/h (4 Bft) W-SW 255 0 min 0 W/m 10,0 C 8,1 C 23,5 km/h (4 Bft)
16.09.2007 10:15 14,4 C 72 % 1013,5 hPa 0,0 l/m 32,1 km/h (5 Bft) W-SW 245 0 min 0 W/m 9,4 C 6,5 C 32,1 km/h (5 Bft)
16.09.2007 10:20 14,7 C 73 % 1013,5 hPa 0,0 l/m 26,4 km/h (4 Bft) W-SW 255 0 min 0 W/m 9,9 C 7,9 C 26,4 km/h (4 Bft)
16.09.2007 10:25 14,7 C 73 % 1012,5 hPa 0,0 l/m 32,7 km/h (5 Bft) W-SW 250 0 min 0 W/m 9,9 C 6,8 C 32,7 km/h (5 Bft)
16.09.2007 10:30 15,0 C 70 % 1012,5 hPa 0,0 l/m 34,1 km/h (5 Bft) W-SW 250 0 min 0 W/m 9,6 C 7,1 C 34,1 km/h (5 Bft)
16.09.2007 10:35 15,6 C 70 % 1012,5 hPa 0,0 l/m 34,7 km/h (5 Bft) W-SW 240 0 min 0 W/m 10,1 C 7,8 C 34,7 km/h (5 Bft)
16.09.2007 10:40 15,7 C 69 % 1012,5 hPa 0,0 l/m 32,0 km/h (5 Bft) W 260 0 min 0 W/m 10,0 C 8,4 C 32,0 km/h (5 Bft)
16.09.2007 10:45 15,7 C 69 % 1012,5 hPa 0,0 l/m 30,7 km/h (5 Bft) W 260 0 min 0 W/m 10,0 C 8,6 C 30,7 km/h (5 Bft)
16.09.2007 10:50 15,7 C 69 % 1012,5 hPa 0,0 l/m 29,7 km/h (5 Bft) W-SW 255 0 min 0 W/m 10,0 C 8,7 C 29,7 km/h (5 Bft)
16.09.2007 10:55 15,9 C 68 % 1012,5 hPa 0,0 l/m 30,0 km/h (5 Bft) W-SW 250 0 min 0 W/m 10,0 C 9,0 C 30,0 km/h (5 Bft)
16.09.2007 11:00 16,0 C 69 % 1012,5 hPa 0,0 l/m 32,2 km/h (5 Bft) W 260 0 min 0 W/m 10,3 C 8,8 C 32,2 km/h (5 Bft)
16.09.2007 11:05 16,2 C 67 % 1012,5 hPa 0,0 l/m 30,3 km/h (5 Bft) W-SW 255 0 min 0 W/m 10,1 C 9,3 C 30,3 km/h (5 Bft)
16.09.2007 11:10 16,4 C 68 % 1012,5 hPa 0,0 l/m 30,6 km/h (5 Bft) W-SW 250 0 min 0 W/m 10,5 C 9,6 C 30,6 km/h (5 Bft)
16.09.2007 11:15 16,5 C 67 % 1012,5 hPa 0,0 l/m 28,3 km/h (5 Bft) W-SW 250 0 min 0 W/m 10,4 C 10,1 C 28,3 km/h (5 Bft)
16.09.2007 11:20 16,8 C 67 % 1012,5 hPa 0,0 l/m 23,5 km/h (4 Bft) W-SW 245 0 min 0 W/m 10,6 C 11,3 C 23,5 km/h (4 Bft)
16.09.2007 11:25 17,0 C 66 % 1012,5 hPa 0,0 l/m 29,8 km/h (5 Bft) W-SW 250 0 min 0 W/m 10,6 C 10,5 C 29,8 km/h (5 Bft)
16.09.2007 11:30 17,2 C 66 % 1012,5 hPa 0,0 l/m 29,6 km/h (5 Bft) W-SW 255 0 min 0 W/m 10,8 C 10,8 C 29,6 km/h (5 Bft)
16.09.2007 11:35 17,2 C 66 % 1012,5 hPa 0,0 l/m 27,0 km/h (5 Bft) SW 235 0 min 0 W/m 10,8 C 11,2 C 27,0 km/h (5 Bft)
16.09.2007 11:40 17,5 C 65 % 1012,5 hPa 0,0 l/m 31,2 km/h (5 Bft) W-SW 250 0 min 0 W/m 10,8 C 11,0 C 31,2 km/h (5 Bft)
16.09.2007 11:45 17,6 C 64 % 1012,5 hPa 0,0 l/m 29,5 km/h (5 Bft) W-SW 250 0 min 0 W/m 10,7 C 11,4 C 29,5 km/h (5 Bft)
16.09.2007 11:50 17,6 C 64 % 1012,5 hPa 0,0 l/m 31,4 km/h (5 Bft) W-SW 250 0 min 0 W/m 10,7 C 11,2 C 31,4 km/h (5 Bft)
16.09.2007 11:55 17,6 C 66 % 1012,5 hPa 0,0 l/m 30,5 km/h (5 Bft) W 260 0 min 0 W/m 11,2 C 11,3 C 30,5 km/h (5 Bft)
16.09.2007 12:00 17,8 C 66 % 1011,5 hPa 0,0 l/m 32,9 km/h (5 Bft) W-SW 250 0 min 0 W/m 11,4 C 11,2 C 32,9 km/h (5 Bft)
16.09.2007 12:05 17,8 C 65 % 1011,5 hPa 0,0 l/m 39,7 km/h (6 Bft) W-SW 255 0 min 0 W/m 11,1 C 10,5 C 39,7 km/h (6 Bft)
16.09.2007 12:10 17,8 C 66 % 1011,5 hPa 0,0 l/m 34,3 km/h (5 Bft) W 260 0 min 0 W/m 11,4 C 11,1 C 34,3 km/h (5 Bft)
16.09.2007 12:15 17,7 C 65 % 1011,5 hPa 0,0 l/m 33,5 km/h (5 Bft) W-SW 250 0 min 0 W/m 11,0 C 11,0 C 33,5 km/h (5 Bft)
16.09.2007 12:20 17,9 C 67 % 1011,5 hPa 0,0 l/m 36,4 km/h (5 Bft) W 260 0 min 0 W/m 11,7 C 11,0 C 36,4 km/h (5 Bft)
16.09.2007 12:25 18,1 C 67 % 1011,5 hPa 0,0 l/m 27,0 km/h (5 Bft) W-SW 250 0 min 0 W/m 11,9 C 12,5 C 27,0 km/h (5 Bft)
16.09.2007 12:30 18,1 C 65 % 1011,5 hPa 0,0 l/m 30,0 km/h (5 Bft) W 260 0 min 0 W/m 11,4 C 12,0 C 30,0 km/h (5 Bft)
16.09.2007 12:35 18,1 C 65 % 1011,5 hPa 0,0 l/m 33,7 km/h (5 Bft) W-SW 255 0 min 0 W/m 11,4 C 11,6 C 33,7 km/h (5 Bft)
16.09.2007 12:40 18,1 C 65 % 1011,5 hPa 0,0 l/m 29,1 km/h (5 Bft) W-SW 255 0 min 0 W/m 11,4 C 12,2 C 29,1 km/h (5 Bft)
16.09.2007 12:45 18,3 C 65 % 1011,5 hPa 0,0 l/m 29,8 km/h (5 Bft) W-SW 255 0 min 0 W/m 11,6 C 12,4 C 29,8 km/h (5 Bft)
16.09.2007 12:50 18,6 C 66 % 1011,5 hPa 0,0 l/m 30,1 km/h (5 Bft) W-SW 250 0 min 0 W/m 12,1 C 12,7 C 30,1 km/h (5 Bft)
16.09.2007 12:55 18,7 C 66 % 1011,5 hPa 0,0 l/m 26,7 km/h (4 Bft) W-SW 255 0 min 0 W/m 12,2 C 13,4 C 26,7 km/h (4 Bft)
16.09.2007 13:00 18,8 C 64 % 1011,5 hPa 0,0 l/m 25,2 km/h (4 Bft) W 260 0 min 0 W/m 11,8 C 13,7 C 25,2 km/h (4 Bft)
16.09.2007 13:05 18,9 C 64 % 1011,5 hPa 0,0 l/m 24,3 km/h (4 Bft) W-SW 250 0 min 0 W/m 11,9 C 14,0 C 24,3 km/h (4 Bft)
16.09.2007 13:10 19,0 C 64 % 1011,5 hPa 0,0 l/m 24,6 km/h (4 Bft) W 260 0 min 0 W/m 12,0 C 14,1 C 24,6 km/h (4 Bft)
16.09.2007 13:15 19,2 C 63 % 1011,5 hPa 0,0 l/m 27,1 km/h (5 Bft) W-SW 245 0 min 0 W/m 12,0 C 14,0 C 27,1 km/h (5 Bft)
16.09.2007 13:20 19,1 C 63 % 1011,5 hPa 0,0 l/m 27,6 km/h (5 Bft) W-SW 255 0 min 0 W/m 11,9 C 13,8 C 27,6 km/h (5 Bft)
16.09.2007 13:25 19,1 C 62 % 1010,5 hPa 0,0 l/m 33,7 km/h (5 Bft) W-SW 250 0 min 0 W/m 11,6 C 13,0 C 33,7 km/h (5 Bft)
16.09.2007 13:30 19,3 C 62 % 1010,5 hPa 0,0 l/m 25,7 km/h (4 Bft) W-SW 255 0 min 0 W/m 11,8 C 14,3 C 25,7 km/h (4 Bft)
16.09.2007 13:35 19,4 C 60 % 1010,5 hPa 0,0 l/m 21,0 km/h (4 Bft) W 260 0 min 0 W/m 11,4 C 15,2 C 21,0 km/h (4 Bft)
16.09.2007 13:40 19,6 C 63 % 1010,5 hPa 0,0 l/m 25,0 km/h (4 Bft) W-SW 250 0 min 0 W/m 12,4 C 14,8 C 25,0 km/h (4 Bft)
16.09.2007 13:45 19,6 C 60 % 1010,5 hPa 0,0 l/m 31,7 km/h (5 Bft) W-SW 255 0 min 0 W/m 11,6 C 14,0 C 31,7 km/h (5 Bft)
16.09.2007 13:50 19,5 C 61 % 1010,5 hPa 0,0 l/m 32,6 km/h (5 Bft) W-SW 250 0 min 0 W/m 11,8 C 13,7 C 32,6 km/h (5 Bft)
16.09.2007 13:55 19,5 C 62 % 1010,5 hPa 0,0 l/m 31,7 km/h (5 Bft) W-SW 250 0 min 0 W/m 12,0 C 13,8 C 31,7 km/h (5 Bft)
16.09.2007 14:00 19,6 C 61 % 1010,5 hPa 0,0 l/m 27,3 km/h (5 Bft) W-SW 250 0 min 0 W/m 11,9 C 14,5 C 27,3 km/h (5 Bft)
16.09.2007 14:05 19,6 C 63 % 1010,5 hPa 0,0 l/m 32,0 km/h (5 Bft) W-SW 255 0 min 0 W/m 12,4 C 13,9 C 32,0 km/h (5 Bft)
16.09.2007 14:10 19,7 C 61 % 1010,5 hPa 0,0 l/m 29,0 km/h (5 Bft) W-SW 255 0 min 0 W/m 12,0 C 14,4 C 29,0 km/h (5 Bft)
16.09.2007 14:15 19,6 C 62 % 1010,5 hPa 0,0 l/m 30,5 km/h (5 Bft) W-SW 255 0 min 0 W/m 12,1 C 14,1 C 30,5 km/h (5 Bft)
16.09.2007 14:20 19,5 C 61 % 1010,5 hPa 0,0 l/m 32,5 km/h (5 Bft) W-SW 255 0 min 0 W/m 11,8 C 13,7 C 32,5 km/h (5 Bft)
16.09.2007 14:25 19,5 C 62 % 1010,5 hPa 0,0 l/m 32,9 km/h (5 Bft) W-SW 255 0 min 0 W/m 12,0 C 13,7 C 32,9 km/h (5 Bft)
16.09.2007 14:30 19,6 C 63 % 1010,5 hPa 0,0 l/m 28,0 km/h (5 Bft) W 260 0 min 0 W/m 12,4 C 14,4 C 28,0 km/h (5 Bft)
16.09.2007 14:35 19,9 C 61 % 1010,5 hPa 0,0 l/m 32,2 km/h (5 Bft) W-SW 250 0 min 0 W/m 12,2 C 14,3 C 32,2 km/h (5 Bft)
16.09.2007 14:40 19,6 C 60 % 1010,5 hPa 0,0 l/m 33,0 km/h (5 Bft) W-SW 255 0 min 0 W/m 11,6 C 13,8 C 33,0 km/h (5 Bft)
16.09.2007 14:45 19,8 C 62 % 1010,5 hPa 0,0 l/m 27,6 km/h (5 Bft) W-SW 250 0 min 0 W/m 12,3 C 14,7 C 27,6 km/h (5 Bft)
16.09.2007 14:50 19,8 C 61 % 1009,5 hPa 0,0 l/m 25,0 km/h (4 Bft) W 265 0 min 0 W/m 12,1 C 15,1 C 25,0 km/h (4 Bft)
16.09.2007 14:55 19,8 C 60 % 1009,5 hPa 0,0 l/m 29,1 km/h (5 Bft) W 260 0 min 0 W/m 11,8 C 14,5 C 29,1 km/h (5 Bft)
16.09.2007 15:00 19,6 C 61 % 1009,5 hPa 0,0 l/m 33,7 km/h (5 Bft) W-SW 250 0 min 0 W/m 11,9 C 13,7 C 33,7 km/h (5 Bft)
16.09.2007 15:05 19,5 C 61 % 1009,5 hPa 0,0 l/m 28,6 km/h (5 Bft) W 260 0 min 0 W/m 11,8 C 14,2 C 28,6 km/h (5 Bft)
16.09.2007 15:11 19,6 C 61 % 1009,5 hPa 0,0 l/m 30,0 km/h (5 Bft) W 260 0 min 0 W/m 11,9 C 14,2 C 30,0 km/h (5 Bft)
16.09.2007 15:15 19,6 C 62 % 1009,5 hPa 0,0 l/m 25,8 km/h (4 Bft) W 265 0 min 0 W/m 12,1 C 14,7 C 25,8 km/h (4 Bft)
16.09.2007 15:20 19,6 C 62 % 1009,5 hPa 0,0 l/m 25,8 km/h (4 Bft) W-SW 245 0 min 0 W/m 12,1 C 14,7 C 25,8 km/h (4 Bft)
16.09.2007 15:25 19,6 C 62 % 1009,5 hPa 0,0 l/m 29,2 km/h (5 Bft) W-SW 255 0 min 0 W/m 12,1 C 14,3 C 29,2 km/h (5 Bft)
16.09.2007 15:30 19,6 C 62 % 1009,5 hPa 0,0 l/m 25,6 km/h (4 Bft) W 275 0 min 0 W/m 12,1 C 14,8 C 25,6 km/h (4 Bft)
16.09.2007 15:35 19,6 C 62 % 1009,5 hPa 0,0 l/m 27,6 km/h (5 Bft) W 265 0 min 0 W/m 12,1 C 14,5 C 27,6 km/h (5 Bft)
16.09.2007 15:40 19,5 C 62 % 1009,5 hPa 0,0 l/m 28,1 km/h (5 Bft) W 260 0 min 0 W/m 12,0 C 14,3 C 28,1 km/h (5 Bft)
16.09.2007 15:45 19,7 C 62 % 1009,5 hPa 0,0 l/m 23,1 km/h (4 Bft) W 265 0 min 0 W/m 12,2 C 15,3 C 23,1 km/h (4 Bft)
16.09.2007 15:50 19,5 C 63 % 1009,5 hPa 0,0 l/m 27,4 km/h (5 Bft) W 270 0 min 0 W/m 12,3 C 14,4 C 27,4 km/h (5 Bft)
16.09.2007 15:55 19,5 C 65 % 1009,5 hPa 0,0 l/m 26,6 km/h (4 Bft) W 260 0 min 0 W/m 12,7 C 14,5 C 26,6 km/h (4 Bft)
16.09.2007 16:01 19,6 C 63 % 1009,5 hPa 0,0 l/m 21,7 km/h (4 Bft) W 260 0 min 0 W/m 12,4 C 15,4 C 21,7 km/h (4 Bft)
16.09.2007 16:05 19,5 C 62 % 1009,5 hPa 0,0 l/m 24,4 km/h (4 Bft) W 260 0 min 0 W/m 12,0 C 14,8 C 24,4 km/h (4 Bft)
16.09.2007 16:10 19,4 C 63 % 1009,5 hPa 0,0 l/m 24,4 km/h (4 Bft) W 260 0 min 0 W/m 12,2 C 14,7 C 24,4 km/h (4 Bft)
16.09.2007 16:15 19,3 C 63 % 1009,5 hPa 0,0 l/m 26,6 km/h (4 Bft) W 260 0 min 0 W/m 12,1 C 14,2 C 26,6 km/h (4 Bft)
16.09.2007 16:20 19,3 C 65 % 1009,5 hPa 0,0 l/m 24,0 km/h (4 Bft) W 265 0 min 0 W/m 12,6 C 14,6 C 24,0 km/h (4 Bft)
16.09.2007 16:25 19,3 C 65 % 1009,5 hPa 0,0 l/m 24,7 km/h (4 Bft) W 260 0 min 0 W/m 12,6 C 14,5 C 24,7 km/h (4 Bft)
16.09.2007 16:30 19,2 C 65 % 1009,5 hPa 0,0 l/m 25,6 km/h (4 Bft) W 270 0 min 0 W/m 12,5 C 14,2 C 25,6 km/h (4 Bft)
16.09.2007 16:35 19,2 C 65 % 1009,5 hPa 0,0 l/m 25,2 km/h (4 Bft) W 260 0 min 0 W/m 12,5 C 14,3 C 25,2 km/h (4 Bft)
16.09.2007 16:40 19,1 C 65 % 1009,5 hPa 0,0 l/m 24,9 km/h (4 Bft) W-SW 250 0 min 0 W/m 12,4 C 14,2 C 24,9 km/h (4 Bft)
16.09.2007 16:45 19,1 C 65 % 1008,5 hPa 0,0 l/m 30,8 km/h (5 Bft) W-SW 255 0 min 0 W/m 12,4 C 13,4 C 30,8 km/h (5 Bft)
16.09.2007 16:50 19,1 C 65 % 1008,5 hPa 0,0 l/m 27,1 km/h (5 Bft) W 270 0 min 0 W/m 12,4 C 13,8 C 27,1 km/h (5 Bft)
16.09.2007 16:55 19,0 C 66 % 1008,5 hPa 0,0 l/m 23,6 km/h (4 Bft) W 260 0 min 0 W/m 12,5 C 14,3 C 23,6 km/h (4 Bft)
16.09.2007 17:00 19,0 C 65 % 1008,5 hPa 0,0 l/m 28,7 km/h (5 Bft) W-SW 255 0 min 0 W/m 12,3 C 13,5 C 28,7 km/h (5 Bft)
16.09.2007 17:05 19,0 C 66 % 1008,5 hPa 0,0 l/m 28,0 km/h (5 Bft) W 260 0 min 0 W/m 12,5 C 13,6 C 28,0 km/h (5 Bft)
16.09.2007 17:10 19,0 C 66 % 1008,5 hPa 0,0 l/m 31,7 km/h (5 Bft) W-SW 255 0 min 0 W/m 12,5 C 13,1 C 31,7 km/h (5 Bft)
16.09.2007 17:15 19,0 C 67 % 1008,5 hPa 0,0 l/m 26,5 km/h (4 Bft) W-SW 250 0 min 0 W/m 12,7 C 13,8 C 26,5 km/h (4 Bft)
16.09.2007 17:20 18,9 C 66 % 1008,5 hPa 0,0 l/m 25,3 km/h (4 Bft) W-SW 250 0 min 0 W/m 12,4 C 13,8 C 25,3 km/h (4 Bft)
16.09.2007 17:25 18,8 C 66 % 1008,5 hPa 0,0 l/m 31,0 km/h (5 Bft) W-SW 255 0 min 0 W/m 12,3 C 12,9 C 31,0 km/h (5 Bft)
16.09.2007 17:30 18,7 C 67 % 1008,5 hPa 0,0 l/m 23,3 km/h (4 Bft) W 265 0 min 0 W/m 12,4 C 13,9 C 23,3 km/h (4 Bft)
16.09.2007 17:35 18,6 C 68 % 1008,5 hPa 0,0 l/m 20,4 km/h (4 Bft) W-SW 255 0 min 0 W/m 12,6 C 14,3 C 20,4 km/h (4 Bft)
16.09.2007 17:40 18,6 C 68 % 1008,5 hPa 0,0 l/m 24,3 km/h (4 Bft) W-SW 255 0 min 0 W/m 12,6 C 13,6 C 24,3 km/h (4 Bft)
16.09.2007 17:45 18,6 C 68 % 1008,5 hPa 0,0 l/m 17,2 km/h (3 Bft) W-SW 250 0 min 0 W/m 12,6 C 15,0 C 17,2 km/h (3 Bft)
16.09.2007 17:50 18,6 C 68 % 1008,5 hPa 0,0 l/m 23,8 km/h (4 Bft) W 260 0 min 0 W/m 12,6 C 13,7 C 23,8 km/h (4 Bft)
16.09.2007 17:55 18,5 C 68 % 1007,5 hPa 0,0 l/m 24,4 km/h (4 Bft) W-SW 250 0 min 0 W/m 12,5 C 13,5 C 24,4 km/h (4 Bft)
16.09.2007 18:00 18,4 C 68 % 1007,5 hPa 0,0 l/m 20,5 km/h (4 Bft) W-SW 255 0 min 0 W/m 12,4 C 14,0 C 20,5 km/h (4 Bft)
16.09.2007 18:05 18,4 C 68 % 1007,5 hPa 0,0 l/m 25,1 km/h (4 Bft) W-SW 250 0 min 0 W/m 12,4 C 13,2 C 25,1 km/h (4 Bft)
16.09.2007 18:10 18,4 C 68 % 1007,5 hPa 0,0 l/m 28,8 km/h (5 Bft) W-SW 250 0 min 0 W/m 12,4 C 12,6 C 28,8 km/h (5 Bft)
16.09.2007 18:15 18,2 C 69 % 1007,5 hPa 0,0 l/m 21,1 km/h (4 Bft) W-SW 250 0 min 0 W/m 12,4 C 13,7 C 21,1 km/h (4 Bft)
16.09.2007 18:20 18,2 C 69 % 1007,5 hPa 0,0 l/m 26,2 km/h (4 Bft) W-SW 255 0 min 0 W/m 12,4 C 12,7 C 26,2 km/h (4 Bft)
16.09.2007 18:25 18,2 C 69 % 1007,5 hPa 0,0 l/m 19,9 km/h (4 Bft) W-SW 250 0 min 0 W/m 12,4 C 13,9 C 19,9 km/h (4 Bft)
16.09.2007 18:30 18,0 C 71 % 1007,5 hPa 0,0 l/m 20,3 km/h (4 Bft) W-SW 255 0 min 0 W/m 12,7 C 13,6 C 20,3 km/h (4 Bft)
16.09.2007 18:35 17,8 C 71 % 1007,5 hPa 0,0 l/m 20,6 km/h (4 Bft) W-SW 250 0 min 0 W/m 12,5 C 13,2 C 20,6 km/h (4 Bft)
16.09.2007 18:40 17,8 C 71 % 1007,5 hPa 0,0 l/m 19,6 km/h (3 Bft) W-SW 250 0 min 0 W/m 12,5 C 13,5 C 19,6 km/h (3 Bft)
16.09.2007 18:45 17,7 C 71 % 1007,5 hPa 0,0 l/m 25,9 km/h (4 Bft) W-SW 255 0 min 0 W/m 12,4 C 12,1 C 25,9 km/h (4 Bft)
16.09.2007 18:50 17,7 C 71 % 1007,5 hPa 0,0 l/m 17,3 km/h (3 Bft) W-SW 250 0 min 0 W/m 12,4 C 13,9 C 17,3 km/h (3 Bft)
16.09.2007 18:55 17,6 C 72 % 1007,5 hPa 0,0 l/m 21,1 km/h (4 Bft) W-SW 250 0 min 0 W/m 12,5 C 12,9 C 21,1 km/h (4 Bft)
16.09.2007 19:00 17,4 C 73 % 1007,5 hPa 0,0 l/m 21,6 km/h (4 Bft) W-SW 250 0 min 0 W/m 12,5 C 12,5 C 21,6 km/h (4 Bft)
16.09.2007 19:05 17,4 C 73 % 1007,5 hPa 0,0 l/m 20,6 km/h (4 Bft) W-SW 250 0 min 0 W/m 12,5 C 12,7 C 20,6 km/h (4 Bft)
16.09.2007 19:10 17,2 C 73 % 1007,5 hPa 0,0 l/m 18,6 km/h (3 Bft) W-SW 245 0 min 0 W/m 12,3 C 12,9 C 18,6 km/h (3 Bft)
16.09.2007 19:15 17,2 C 74 % 1007,5 hPa 0,0 l/m 18,0 km/h (3 Bft) W-SW 245 0 min 0 W/m 12,5 C 13,1 C 18,0 km/h (3 Bft)
16.09.2007 19:20 17,1 C 74 % 1007,5 hPa 0,0 l/m 15,6 km/h (3 Bft) W-SW 255 0 min 0 W/m 12,4 C 13,6 C 15,6 km/h (3 Bft)
16.09.2007 19:25 17,1 C 74 % 1007,5 hPa 0,0 l/m 20,4 km/h (4 Bft) W-SW 250 0 min 0 W/m 12,4 C 12,4 C 20,4 km/h (4 Bft)
16.09.2007 19:30 17,0 C 74 % 1006,5 hPa 0,0 l/m 17,8 km/h (3 Bft) W-SW 245 0 min 0 W/m 12,3 C 12,9 C 17,8 km/h (3 Bft)
16.09.2007 19:35 16,8 C 74 % 1006,5 hPa 0,0 l/m 19,9 km/h (4 Bft) W-SW 255 0 min 0 W/m 12,1 C 12,1 C 19,9 km/h (4 Bft)
16.09.2007 19:40 16,8 C 75 % 1006,5 hPa 0,0 l/m 16,3 km/h (3 Bft) W-SW 245 0 min 0 W/m 12,3 C 13,0 C 16,3 km/h (3 Bft)
16.09.2007 19:45 16,8 C 75 % 1006,5 hPa 0,0 l/m 16,6 km/h (3 Bft) W-SW 245 0 min 0 W/m 12,3 C 12,9 C 16,6 km/h (3 Bft)
16.09.2007 19:50 16,8 C 75 % 1006,5 hPa 0,0 l/m 20,0 km/h (4 Bft) W-SW 255 0 min 0 W/m 12,3 C 12,1 C 20,0 km/h (4 Bft)
16.09.2007 19:55 16,7 C 75 % 1006,5 hPa 0,0 l/m 18,7 km/h (3 Bft) W-SW 245 0 min 0 W/m 12,2 C 12,3 C 18,7 km/h (3 Bft)
16.09.2007 20:00 16,7 C 75 % 1006,5 hPa 0,0 l/m 17,8 km/h (3 Bft) W-SW 255 0 min 0 W/m 12,2 C 12,5 C 17,8 km/h (3 Bft)
16.09.2007 20:05 16,7 C 75 % 1006,5 hPa 0,0 l/m 16,9 km/h (3 Bft) W-SW 255 0 min 0 W/m 12,2 C 12,7 C 16,9 km/h (3 Bft)
16.09.2007 20:10 16,6 C 75 % 1006,5 hPa 0,0 l/m 18,6 km/h (3 Bft) W-SW 245 0 min 0 W/m 12,1 C 12,1 C 18,6 km/h (3 Bft)
16.09.2007 20:15 16,7 C 75 % 1006,5 hPa 0,0 l/m 18,8 km/h (3 Bft) W-SW 245 0 min 0 W/m 12,2 C 12,2 C 18,8 km/h (3 Bft)
16.09.2007 20:20 16,6 C 75 % 1006,5 hPa 0,0 l/m 17,5 km/h (3 Bft) W-SW 240 0 min 0 W/m 12,1 C 12,4 C 17,5 km/h (3 Bft)
16.09.2007 20:25 16,6 C 76 % 1006,5 hPa 0,0 l/m 13,5 km/h (3 Bft) W-SW 240 0 min 0 W/m 12,3 C 13,6 C 13,5 km/h (3 Bft)
16.09.2007 20:30 16,6 C 76 % 1006,5 hPa 0,0 l/m 15,4 km/h (3 Bft) SW 235 0 min 0 W/m 12,3 C 13,0 C 15,4 km/h (3 Bft)
16.09.2007 20:35 16,6 C 76 % 1006,5 hPa 0,0 l/m 19,3 km/h (3 Bft) W-SW 240 0 min 0 W/m 12,3 C 12,0 C 19,3 km/h (3 Bft)
16.09.2007 20:41 16,5 C 77 % 1006,5 hPa 0,0 l/m 13,6 km/h (3 Bft) W-SW 245 0 min 0 W/m 12,5 C 13,4 C 13,6 km/h (3 Bft)
16.09.2007 20:45 16,4 C 77 % 1006,5 hPa 0,0 l/m 15,0 km/h (3 Bft) W-SW 250 0 min 0 W/m 12,4 C 12,9 C 15,0 km/h (3 Bft)
16.09.2007 20:50 16,5 C 77 % 1006,5 hPa 0,0 l/m 12,6 km/h (3 Bft) W-SW 250 0 min 0 W/m 12,5 C 13,8 C 12,6 km/h (3 Bft)
16.09.2007 20:55 16,4 C 78 % 1006,5 hPa 0,0 l/m 12,3 km/h (2 Bft) W-SW 245 0 min 0 W/m 12,6 C 13,8 C 12,3 km/h (2 Bft)
16.09.2007 21:00 16,4 C 78 % 1006,5 hPa 0,0 l/m 17,5 km/h (3 Bft) W-SW 245 0 min 0 W/m 12,6 C 12,2 C 17,5 km/h (3 Bft)
16.09.2007 21:05 16,4 C 78 % 1006,5 hPa 0,0 l/m 13,7 km/h (3 Bft) W-SW 240 0 min 0 W/m 12,6 C 13,3 C 13,7 km/h (3 Bft)
16.09.2007 21:10 16,4 C 78 % 1006,5 hPa 0,0 l/m 16,6 km/h (3 Bft) W-SW 240 0 min 0 W/m 12,6 C 12,4 C 16,6 km/h (3 Bft)
16.09.2007 21:15 16,4 C 78 % 1006,5 hPa 0,0 l/m 16,0 km/h (3 Bft) W-SW 240 0 min 0 W/m 12,6 C 12,6 C 16,0 km/h (3 Bft)
16.09.2007 21:20 16,4 C 78 % 1006,5 hPa 0,0 l/m 15,0 km/h (3 Bft) W-SW 240 0 min 0 W/m 12,6 C 12,9 C 15,0 km/h (3 Bft)
16.09.2007 21:25 16,4 C 78 % 1006,5 hPa 0,0 l/m 12,4 km/h (2 Bft) W-SW 250 0 min 0 W/m 12,6 C 13,7 C 12,4 km/h (2 Bft)
16.09.2007 21:30 16,4 C 78 % 1006,5 hPa 0,0 l/m 14,5 km/h (3 Bft) W-SW 245 0 min 0 W/m 12,6 C 13,0 C 14,5 km/h (3 Bft)
16.09.2007 21:35 16,4 C 78 % 1005,5 hPa 0,0 l/m 12,3 km/h (2 Bft) W-SW 250 0 min 0 W/m 12,6 C 13,8 C 12,3 km/h (2 Bft)
16.09.2007 21:40 16,4 C 78 % 1005,5 hPa 0,0 l/m 16,6 km/h (3 Bft) W-SW 245 0 min 0 W/m 12,6 C 12,4 C 16,6 km/h (3 Bft)
16.09.2007 21:45 16,4 C 78 % 1005,5 hPa 0,0 l/m 17,5 km/h (3 Bft) W-SW 245 0 min 0 W/m 12,6 C 12,2 C 17,5 km/h (3 Bft)
16.09.2007 21:50 16,4 C 78 % 1005,5 hPa 0,0 l/m 18,3 km/h (3 Bft) W-SW 250 0 min 0 W/m 12,6 C 12,0 C 18,3 km/h (3 Bft)
16.09.2007 21:55 16,4 C 78 % 1005,5 hPa 0,0 l/m 20,1 km/h (4 Bft) W-SW 240 0 min 0 W/m 12,6 C 11,5 C 20,1 km/h (4 Bft)
16.09.2007 22:01 16,4 C 79 % 1005,5 hPa 0,0 l/m 17,4 km/h (3 Bft) W-SW 250 0 min 0 W/m 12,7 C 12,2 C 17,4 km/h (3 Bft)
16.09.2007 22:06 16,3 C 78 % 1005,5 hPa 0,0 l/m 19,0 km/h (3 Bft) W-SW 250 0 min 0 W/m 12,5 C 11,7 C 19,0 km/h (3 Bft)
16.09.2007 22:11 16,4 C 78 % 1005,5 hPa 0,0 l/m 27,2 km/h (5 Bft) W 260 0 min 0 W/m 12,6 C 10,1 C 27,2 km/h (5 Bft)
16.09.2007 22:16 16,5 C 78 % 1005,5 hPa 0,0 l/m 25,0 km/h (4 Bft) W-SW 250 0 min 0 W/m 12,6 C 10,6 C 25,0 km/h (4 Bft)
16.09.2007 22:21 16,5 C 78 % 1005,5 hPa 0,0 l/m 25,8 km/h (4 Bft) W-SW 250 0 min 0 W/m 12,6 C 10,5 C 25,8 km/h (4 Bft)
16.09.2007 22:26 16,5 C 78 % 1005,5 hPa 0,0 l/m 25,8 km/h (4 Bft) W-SW 250 0 min 0 W/m 12,6 C 10,5 C 25,8 km/h (4 Bft)
16.09.2007 22:31 16,5 C 78 % 1005,5 hPa 0,0 l/m 23,9 km/h (4 Bft) W-SW 250 0 min 0 W/m 12,6 C 10,9 C 23,9 km/h (4 Bft)
16.09.2007 22:36 16,6 C 78 % 1005,5 hPa 0,0 l/m 28,1 km/h (5 Bft) W-SW 245 0 min 0 W/m 12,7 C 10,2 C 28,1 km/h (5 Bft)
16.09.2007 22:41 16,6 C 78 % 1005,5 hPa 0,0 l/m 27,0 km/h (5 Bft) W 260 0 min 0 W/m 12,7 C 10,4 C 27,0 km/h (5 Bft)
16.09.2007 22:46 16,6 C 78 % 1005,5 hPa 0,0 l/m 23,5 km/h (4 Bft) W-SW 250 0 min 0 W/m 12,7 C 11,1 C 23,5 km/h (4 Bft)
16.09.2007 22:51 16,6 C 78 % 1005,5 hPa 0,0 l/m 21,9 km/h (4 Bft) W-SW 250 0 min 0 W/m 12,7 C 11,4 C 21,9 km/h (4 Bft)
16.09.2007 22:56 16,5 C 78 % 1005,5 hPa 0,0 l/m 26,1 km/h (4 Bft) W-SW 250 0 min 0 W/m 12,6 C 10,4 C 26,1 km/h (4 Bft)
16.09.2007 23:01 16,5 C 78 % 1005,5 hPa 0,0 l/m 21,3 km/h (4 Bft) W-SW 250 0 min 0 W/m 12,6 C 11,4 C 21,3 km/h (4 Bft)
16.09.2007 23:06 16,5 C 78 % 1005,5 hPa 0,0 l/m 25,4 km/h (4 Bft) W-SW 250 0 min 0 W/m 12,6 C 10,6 C 25,4 km/h (4 Bft)
16.09.2007 23:11 16,5 C 78 % 1005,5 hPa 0,0 l/m 19,5 km/h (3 Bft) W-SW 245 0 min 0 W/m 12,6 C 11,8 C 19,5 km/h (3 Bft)
16.09.2007 23:16 16,5 C 78 % 1005,5 hPa 0,0 l/m 28,0 km/h (5 Bft) W-SW 240 0 min 0 W/m 12,6 C 10,1 C 28,0 km/h (5 Bft)
16.09.2007 23:21 16,6 C 78 % 1005,5 hPa 0,0 l/m 27,1 km/h (5 Bft) W-SW 245 0 min 0 W/m 12,7 C 10,4 C 27,1 km/h (5 Bft)
16.09.2007 23:26 16,6 C 77 % 1005,5 hPa 0,0 l/m 29,6 km/h (5 Bft) W-SW 240 0 min 0 W/m 12,5 C 10,0 C 29,6 km/h (5 Bft)
16.09.2007 23:31 16,6 C 77 % 1005,5 hPa 0,0 l/m 27,3 km/h (5 Bft) W 260 0 min 0 W/m 12,5 C 10,4 C 27,3 km/h (5 Bft)
16.09.2007 23:36 16,5 C 77 % 1005,5 hPa 0,0 l/m 31,7 km/h (5 Bft) W-SW 250 0 min 0 W/m 12,5 C 9,5 C 31,7 km/h (5 Bft)
16.09.2007 23:41 16,5 C 77 % 1005,5 hPa 0,0 l/m 28,1 km/h (5 Bft) W-SW 245 0 min 0 W/m 12,5 C 10,1 C 28,1 km/h (5 Bft)
16.09.2007 23:46 16,5 C 78 % 1005,5 hPa 0,0 l/m 24,0 km/h (4 Bft) W-SW 255 0 min 0 W/m 12,6 C 10,8 C 24,0 km/h (4 Bft)
16.09.2007 23:51 16,5 C 78 % 1004,5 hPa 0,0 l/m 27,4 km/h (5 Bft) W-SW 245 0 min 0 W/m 12,6 C 10,2 C 27,4 km/h (5 Bft)
16.09.2007 23:56 16,6 C 78 % 1004,5 hPa 0,0 l/m 32,0 km/h (5 Bft) W-SW 250 0 min 0 W/m 12,7 C 9,6 C 32,0 km/h (5 Bft)
_ Min-Zeit 04:15 13:35 23:51 - 04:10 - - - - 04:15 08:35 04:10
Minimum _ 10,6 C 60 % 1004,5 hPa - 5,2 km/h (1 Bft) - - - - 8,7 C 3,8 C 5,2 km/h (1 Bft)
_ Max-Zeit 14:35 01:40 00:00 00:00 12:05 - - 00:00 00:00 22:01 16:01 12:05
Maximum _ 19,9 C 88 % 1018,5 hPa 0,0 l/m 39,7 km/h
W-SW (6 Bft)
- - 0 min 0 W/m 12,7 C 15,4 C 39,7 km/h
W-SW (6 Bft)
Durchschnitt _ 15,1 C 76 % 1011,7 hPa #0,0 l/m 21,3 km/h (4 Bft) W-SW - #0 min. 0 W/m 10,8 C 10,1 C 21,3 km/h (4 Bft)
copyright by Holger Just